sensor_id;sensor_type;location;lat;lon;timestamp;P1;durP1;ratioP1;P2;durP2;ratioP2
16029;SDS011;34770;49.272;11.070;2024-01-11T00:02:03;30.13;;;17.90;;
16029;SDS011;34770;49.272;11.070;2024-01-11T00:04:29;26.93;;;16.00;;
16029;SDS011;34770;49.272;11.070;2024-01-11T00:06:54;32.87;;;18.13;;
16029;SDS011;34770;49.272;11.070;2024-01-11T00:09:20;35.13;;;19.87;;
16029;SDS011;34770;49.272;11.070;2024-01-11T00:11:45;31.90;;;18.83;;
16029;SDS011;34770;49.272;11.070;2024-01-11T00:14:10;34.27;;;21.57;;
16029;SDS011;34770;49.272;11.070;2024-01-11T00:16:36;34.27;;;20.47;;
16029;SDS011;34770;49.272;11.070;2024-01-11T00:19:01;32.83;;;18.70;;
16029;SDS011;34770;49.272;11.070;2024-01-11T00:21:26;26.90;;;16.50;;
16029;SDS011;34770;49.272;11.070;2024-01-11T00:23:52;26.53;;;17.67;;
16029;SDS011;34770;49.272;11.070;2024-01-11T00:26:17;29.00;;;16.60;;
16029;SDS011;34770;49.272;11.070;2024-01-11T00:28:43;29.83;;;18.20;;
16029;SDS011;34770;49.272;11.070;2024-01-11T00:31:08;31.20;;;16.93;;
16029;SDS011;34770;49.272;11.070;2024-01-11T00:33:33;28.63;;;18.20;;
16029;SDS011;34770;49.272;11.070;2024-01-11T00:35:59;26.80;;;16.63;;
16029;SDS011;34770;49.272;11.070;2024-01-11T00:38:24;23.63;;;16.63;;
16029;SDS011;34770;49.272;11.070;2024-01-11T00:40:49;30.97;;;16.80;;
16029;SDS011;34770;49.272;11.070;2024-01-11T00:43:15;27.50;;;16.10;;
16029;SDS011;34770;49.272;11.070;2024-01-11T00:45:40;25.30;;;16.73;;
16029;SDS011;34770;49.272;11.070;2024-01-11T00:48:06;24.83;;;17.43;;
16029;SDS011;34770;49.272;11.070;2024-01-11T00:50:31;30.57;;;17.77;;
16029;SDS011;34770;49.272;11.070;2024-01-11T00:52:56;25.37;;;15.67;;
16029;SDS011;34770;49.272;11.070;2024-01-11T00:55:22;27.73;;;16.80;;
16029;SDS011;34770;49.272;11.070;2024-01-11T00:57:47;24.03;;;16.27;;
16029;SDS011;34770;49.272;11.070;2024-01-11T01:00:13;28.20;;;18.57;;
16029;SDS011;34770;49.272;11.070;2024-01-11T01:02:39;24.53;;;16.40;;
16029;SDS011;34770;49.272;11.070;2024-01-11T01:05:05;25.47;;;16.00;;
16029;SDS011;34770;49.272;11.070;2024-01-11T01:07:31;25.97;;;14.80;;
16029;SDS011;34770;49.272;11.070;2024-01-11T01:09:56;25.47;;;16.77;;
16029;SDS011;34770;49.272;11.070;2024-01-11T01:12:22;21.97;;;14.97;;
16029;SDS011;34770;49.272;11.070;2024-01-11T01:14:47;28.80;;;16.53;;
16029;SDS011;34770;49.272;11.070;2024-01-11T01:17:12;31.87;;;17.87;;
16029;SDS011;34770;49.272;11.070;2024-01-11T01:19:38;23.00;;;16.93;;
16029;SDS011;34770;49.272;11.070;2024-01-11T01:22:03;25.57;;;16.87;;
16029;SDS011;34770;49.272;11.070;2024-01-11T01:24:28;24.83;;;16.73;;
16029;SDS011;34770;49.272;11.070;2024-01-11T01:26:55;33.80;;;17.70;;
16029;SDS011;34770;49.272;11.070;2024-01-11T01:29:21;27.33;;;16.50;;
16029;SDS011;34770;49.272;11.070;2024-01-11T01:31:46;25.77;;;16.70;;
16029;SDS011;34770;49.272;11.070;2024-01-11T01:34:11;28.03;;;16.00;;
16029;SDS011;34770;49.272;11.070;2024-01-11T01:36:37;30.27;;;17.23;;
16029;SDS011;34770;49.272;11.070;2024-01-11T01:39:02;25.77;;;16.13;;
16029;SDS011;34770;49.272;11.070;2024-01-11T01:41:28;28.53;;;15.13;;
16029;SDS011;34770;49.272;11.070;2024-01-11T01:43:53;26.53;;;16.37;;
16029;SDS011;34770;49.272;11.070;2024-01-11T01:46:20;29.40;;;16.67;;
16029;SDS011;34770;49.272;11.070;2024-01-11T01:48:48;24.13;;;16.37;;
16029;SDS011;34770;49.272;11.070;2024-01-11T01:51:14;26.40;;;16.00;;
16029;SDS011;34770;49.272;11.070;2024-01-11T01:53:40;27.90;;;16.57;;
16029;SDS011;34770;49.272;11.070;2024-01-11T01:56:06;26.37;;;16.33;;
16029;SDS011;34770;49.272;11.070;2024-01-11T01:58:33;26.83;;;16.23;;
16029;SDS011;34770;49.272;11.070;2024-01-11T02:01:00;26.93;;;16.70;;
16029;SDS011;34770;49.272;11.070;2024-01-11T02:03:26;27.07;;;17.37;;
16029;SDS011;34770;49.272;11.070;2024-01-11T02:05:53;28.47;;;15.50;;
16029;SDS011;34770;49.272;11.070;2024-01-11T02:08:19;32.83;;;17.53;;
16029;SDS011;34770;49.272;11.070;2024-01-11T02:10:48;27.77;;;17.73;;
16029;SDS011;34770;49.272;11.070;2024-01-11T02:13:13;30.43;;;16.60;;
16029;SDS011;34770;49.272;11.070;2024-01-11T02:15:39;28.23;;;15.97;;
16029;SDS011;34770;49.272;11.070;2024-01-11T02:18:04;27.43;;;15.73;;
16029;SDS011;34770;49.272;11.070;2024-01-11T02:20:30;25.67;;;15.53;;
16029;SDS011;34770;49.272;11.070;2024-01-11T02:22:58;29.13;;;16.43;;
16029;SDS011;34770;49.272;11.070;2024-01-11T02:25:26;27.77;;;16.97;;
16029;SDS011;34770;49.272;11.070;2024-01-11T02:27:51;27.17;;;17.70;;
16029;SDS011;34770;49.272;11.070;2024-01-11T02:30:17;27.47;;;16.83;;
16029;SDS011;34770;49.272;11.070;2024-01-11T02:32:43;20.33;;;14.50;;
16029;SDS011;34770;49.272;11.070;2024-01-11T02:35:09;28.93;;;15.80;;
16029;SDS011;34770;49.272;11.070;2024-01-11T02:37:36;34.47;;;17.57;;
16029;SDS011;34770;49.272;11.070;2024-01-11T02:40:02;23.40;;;15.53;;
16029;SDS011;34770;49.272;11.070;2024-01-11T02:42:28;28.93;;;17.00;;
16029;SDS011;34770;49.272;11.070;2024-01-11T02:44:53;24.70;;;15.60;;
16029;SDS011;34770;49.272;11.070;2024-01-11T02:47:19;31.50;;;15.77;;
16029;SDS011;34770;49.272;11.070;2024-01-11T02:49:44;23.93;;;15.27;;
16029;SDS011;34770;49.272;11.070;2024-01-11T02:52:09;23.57;;;15.57;;
16029;SDS011;34770;49.272;11.070;2024-01-11T02:54:35;22.03;;;14.53;;
16029;SDS011;34770;49.272;11.070;2024-01-11T02:57:00;21.63;;;13.63;;
16029;SDS011;34770;49.272;11.070;2024-01-11T02:59:26;24.10;;;15.00;;
16029;SDS011;34770;49.272;11.070;2024-01-11T03:01:51;30.63;;;17.87;;
16029;SDS011;34770;49.272;11.070;2024-01-11T03:04:17;24.70;;;16.13;;
16029;SDS011;34770;49.272;11.070;2024-01-11T03:06:42;25.53;;;17.13;;
16029;SDS011;34770;49.272;11.070;2024-01-11T03:09:07;26.30;;;17.03;;
16029;SDS011;34770;49.272;11.070;2024-01-11T03:11:33;28.80;;;16.03;;
16029;SDS011;34770;49.272;11.070;2024-01-11T03:13:58;25.40;;;16.83;;
16029;SDS011;34770;49.272;11.070;2024-01-11T03:16:23;20.47;;;15.23;;
16029;SDS011;34770;49.272;11.070;2024-01-11T03:18:49;27.50;;;16.03;;
16029;SDS011;34770;49.272;11.070;2024-01-11T03:21:14;22.30;;;15.13;;
16029;SDS011;34770;49.272;11.070;2024-01-11T03:23:39;26.80;;;16.80;;
16029;SDS011;34770;49.272;11.070;2024-01-11T03:26:11;30.10;;;16.63;;
16029;SDS011;34770;49.272;11.070;2024-01-11T03:28:38;27.67;;;15.53;;
16029;SDS011;34770;49.272;11.070;2024-01-11T03:31:03;23.40;;;15.67;;
16029;SDS011;34770;49.272;11.070;2024-01-11T03:33:29;33.13;;;17.63;;
16029;SDS011;34770;49.272;11.070;2024-01-11T03:35:54;27.47;;;17.97;;
16029;SDS011;34770;49.272;11.070;2024-01-11T03:38:19;25.40;;;16.53;;
16029;SDS011;34770;49.272;11.070;2024-01-11T03:40:45;25.00;;;16.30;;
16029;SDS011;34770;49.272;11.070;2024-01-11T03:43:10;27.80;;;17.27;;
16029;SDS011;34770;49.272;11.070;2024-01-11T03:45:35;27.23;;;18.07;;
16029;SDS011;34770;49.272;11.070;2024-01-11T03:48:01;32.67;;;17.23;;
16029;SDS011;34770;49.272;11.070;2024-01-11T03:50:26;29.77;;;17.87;;
16029;SDS011;34770;49.272;11.070;2024-01-11T03:52:51;25.40;;;15.90;;
16029;SDS011;34770;49.272;11.070;2024-01-11T03:55:17;23.17;;;16.10;;
16029;SDS011;34770;49.272;11.070;2024-01-11T03:57:42;27.50;;;17.30;;
16029;SDS011;34770;49.272;11.070;2024-01-11T04:00:09;28.07;;;15.97;;
16029;SDS011;34770;49.272;11.070;2024-01-11T04:02:35;24.87;;;15.77;;
16029;SDS011;34770;49.272;11.070;2024-01-11T04:05:00;32.20;;;17.53;;
16029;SDS011;34770;49.272;11.070;2024-01-11T04:07:26;28.10;;;16.33;;
16029;SDS011;34770;49.272;11.070;2024-01-11T04:09:51;27.43;;;16.07;;
16029;SDS011;34770;49.272;11.070;2024-01-11T04:12:17;26.73;;;15.97;;
16029;SDS011;34770;49.272;11.070;2024-01-11T04:14:42;29.80;;;16.43;;
16029;SDS011;34770;49.272;11.070;2024-01-11T04:17:07;25.73;;;16.13;;
16029;SDS011;34770;49.272;11.070;2024-01-11T04:19:33;20.73;;;14.70;;
16029;SDS011;34770;49.272;11.070;2024-01-11T04:21:58;27.50;;;15.77;;
16029;SDS011;34770;49.272;11.070;2024-01-11T04:24:23;25.77;;;15.63;;
16029;SDS011;34770;49.272;11.070;2024-01-11T04:26:49;29.03;;;16.13;;
16029;SDS011;34770;49.272;11.070;2024-01-11T04:29:14;22.57;;;14.90;;
16029;SDS011;34770;49.272;11.070;2024-01-11T04:31:39;30.20;;;16.63;;
16029;SDS011;34770;49.272;11.070;2024-01-11T04:34:05;28.43;;;15.07;;
16029;SDS011;34770;49.272;11.070;2024-01-11T04:36:30;24.23;;;15.63;;
16029;SDS011;34770;49.272;11.070;2024-01-11T04:38:56;28.57;;;15.53;;
16029;SDS011;34770;49.272;11.070;2024-01-11T04:41:21;23.80;;;16.87;;
16029;SDS011;34770;49.272;11.070;2024-01-11T04:43:46;29.67;;;15.37;;
16029;SDS011;34770;49.272;11.070;2024-01-11T04:46:15;28.00;;;16.00;;
16029;SDS011;34770;49.272;11.070;2024-01-11T04:48:45;25.80;;;15.57;;
16029;SDS011;34770;49.272;11.070;2024-01-11T04:51:11;24.23;;;14.93;;
16029;SDS011;34770;49.272;11.070;2024-01-11T04:53:38;29.27;;;16.30;;
16029;SDS011;34770;49.272;11.070;2024-01-11T04:56:07;26.30;;;15.83;;
16029;SDS011;34770;49.272;11.070;2024-01-11T04:58:34;27.03;;;15.23;;
16029;SDS011;34770;49.272;11.070;2024-01-11T05:01:00;23.80;;;15.17;;
16029;SDS011;34770;49.272;11.070;2024-01-11T05:03:25;23.83;;;16.20;;
16029;SDS011;34770;49.272;11.070;2024-01-11T05:05:50;25.57;;;15.70;;
16029;SDS011;34770;49.272;11.070;2024-01-11T05:08:16;25.37;;;16.23;;
16029;SDS011;34770;49.272;11.070;2024-01-11T05:10:41;24.40;;;16.47;;
16029;SDS011;34770;49.272;11.070;2024-01-11T05:13:07;24.60;;;17.20;;
16029;SDS011;34770;49.272;11.070;2024-01-11T05:15:34;28.73;;;17.53;;
16029;SDS011;34770;49.272;11.070;2024-01-11T05:17:59;27.37;;;15.03;;
16029;SDS011;34770;49.272;11.070;2024-01-11T05:20:24;22.53;;;15.63;;
16029;SDS011;34770;49.272;11.070;2024-01-11T05:22:50;29.23;;;16.83;;
16029;SDS011;34770;49.272;11.070;2024-01-11T05:25:15;22.63;;;15.17;;
16029;SDS011;34770;49.272;11.070;2024-01-11T05:27:40;23.43;;;14.97;;
16029;SDS011;34770;49.272;11.070;2024-01-11T05:30:06;26.10;;;15.40;;
16029;SDS011;34770;49.272;11.070;2024-01-11T05:32:32;28.53;;;16.63;;
16029;SDS011;34770;49.272;11.070;2024-01-11T05:34:57;24.13;;;15.33;;
16029;SDS011;34770;49.272;11.070;2024-01-11T05:37:22;24.93;;;16.50;;
16029;SDS011;34770;49.272;11.070;2024-01-11T05:39:48;32.93;;;16.10;;
16029;SDS011;34770;49.272;11.070;2024-01-11T05:42:13;26.17;;;15.63;;
16029;SDS011;34770;49.272;11.070;2024-01-11T05:44:38;24.30;;;15.63;;
16029;SDS011;34770;49.272;11.070;2024-01-11T05:47:04;28.17;;;18.23;;
16029;SDS011;34770;49.272;11.070;2024-01-11T05:49:29;28.03;;;17.07;;
16029;SDS011;34770;49.272;11.070;2024-01-11T05:51:55;26.63;;;16.10;;
16029;SDS011;34770;49.272;11.070;2024-01-11T05:54:20;25.13;;;15.50;;
16029;SDS011;34770;49.272;11.070;2024-01-11T05:56:45;25.77;;;15.73;;
16029;SDS011;34770;49.272;11.070;2024-01-11T05:59:11;24.83;;;16.50;;
16029;SDS011;34770;49.272;11.070;2024-01-11T06:01:43;28.53;;;17.80;;
16029;SDS011;34770;49.272;11.070;2024-01-11T06:04:08;27.30;;;16.97;;
16029;SDS011;34770;49.272;11.070;2024-01-11T06:06:34;27.70;;;16.53;;
16029;SDS011;34770;49.272;11.070;2024-01-11T06:08:59;28.47;;;17.20;;
16029;SDS011;34770;49.272;11.070;2024-01-11T06:11:24;28.73;;;18.67;;
16029;SDS011;34770;49.272;11.070;2024-01-11T06:13:50;31.90;;;19.17;;
16029;SDS011;34770;49.272;11.070;2024-01-11T06:16:15;30.00;;;17.00;;
16029;SDS011;34770;49.272;11.070;2024-01-11T06:18:40;30.20;;;17.93;;
16029;SDS011;34770;49.272;11.070;2024-01-11T06:21:06;34.70;;;19.77;;
16029;SDS011;34770;49.272;11.070;2024-01-11T06:23:31;26.43;;;19.13;;
16029;SDS011;34770;49.272;11.070;2024-01-11T06:25:56;35.47;;;20.73;;
16029;SDS011;34770;49.272;11.070;2024-01-11T06:28:22;37.33;;;19.27;;
16029;SDS011;34770;49.272;11.070;2024-01-11T06:30:47;31.17;;;18.33;;
16029;SDS011;34770;49.272;11.070;2024-01-11T06:33:13;31.90;;;20.10;;
16029;SDS011;34770;49.272;11.070;2024-01-11T06:35:38;29.83;;;19.20;;
16029;SDS011;34770;49.272;11.070;2024-01-11T06:38:04;34.83;;;21.23;;
16029;SDS011;34770;49.272;11.070;2024-01-11T06:40:30;34.27;;;20.77;;
16029;SDS011;34770;49.272;11.070;2024-01-11T06:42:55;40.57;;;21.40;;
16029;SDS011;34770;49.272;11.070;2024-01-11T06:45:21;37.07;;;22.33;;
16029;SDS011;34770;49.272;11.070;2024-01-11T06:47:46;33.33;;;18.53;;
16029;SDS011;34770;49.272;11.070;2024-01-11T06:50:12;35.43;;;21.57;;
16029;SDS011;34770;49.272;11.070;2024-01-11T06:52:38;43.93;;;23.63;;
16029;SDS011;34770;49.272;11.070;2024-01-11T06:55:04;43.00;;;20.77;;
16029;SDS011;34770;49.272;11.070;2024-01-11T06:57:29;36.07;;;20.77;;
16029;SDS011;34770;49.272;11.070;2024-01-11T06:59:55;34.60;;;22.57;;
16029;SDS011;34770;49.272;11.070;2024-01-11T07:02:21;28.93;;;19.60;;
16029;SDS011;34770;49.272;11.070;2024-01-11T07:04:46;35.83;;;20.30;;
16029;SDS011;34770;49.272;11.070;2024-01-11T07:07:11;38.47;;;22.10;;
16029;SDS011;34770;49.272;11.070;2024-01-11T07:09:37;37.43;;;20.40;;
16029;SDS011;34770;49.272;11.070;2024-01-11T07:12:02;32.83;;;20.97;;
16029;SDS011;34770;49.272;11.070;2024-01-11T07:14:28;40.30;;;21.10;;
16029;SDS011;34770;49.272;11.070;2024-01-11T07:16:54;40.80;;;20.97;;
16029;SDS011;34770;49.272;11.070;2024-01-11T07:19:20;30.73;;;19.70;;
16029;SDS011;34770;49.272;11.070;2024-01-11T07:21:45;35.40;;;20.33;;
16029;SDS011;34770;49.272;11.070;2024-01-11T07:24:11;39.30;;;21.90;;
16029;SDS011;34770;49.272;11.070;2024-01-11T07:26:36;35.00;;;19.67;;
16029;SDS011;34770;49.272;11.070;2024-01-11T07:29:02;37.33;;;19.87;;
16029;SDS011;34770;49.272;11.070;2024-01-11T07:31:27;33.30;;;20.00;;
16029;SDS011;34770;49.272;11.070;2024-01-11T07:33:53;31.77;;;18.77;;
16029;SDS011;34770;49.272;11.070;2024-01-11T07:36:18;28.97;;;18.77;;
16029;SDS011;34770;49.272;11.070;2024-01-11T07:38:44;35.93;;;20.90;;
16029;SDS011;34770;49.272;11.070;2024-01-11T07:41:09;32.13;;;20.40;;
16029;SDS011;34770;49.272;11.070;2024-01-11T07:43:35;31.57;;;19.80;;
16029;SDS011;34770;49.272;11.070;2024-01-11T07:46:03;31.63;;;17.90;;
16029;SDS011;34770;49.272;11.070;2024-01-11T07:48:30;30.97;;;18.87;;
16029;SDS011;34770;49.272;11.070;2024-01-11T07:50:56;31.27;;;17.30;;
16029;SDS011;34770;49.272;11.070;2024-01-11T07:53:21;35.90;;;18.77;;
16029;SDS011;34770;49.272;11.070;2024-01-11T07:55:48;26.30;;;18.87;;
16029;SDS011;34770;49.272;11.070;2024-01-11T07:58:13;30.90;;;18.00;;
16029;SDS011;34770;49.272;11.070;2024-01-11T08:00:40;30.93;;;17.67;;
16029;SDS011;34770;49.272;11.070;2024-01-11T08:03:05;28.10;;;16.13;;
16029;SDS011;34770;49.272;11.070;2024-01-11T08:05:31;29.83;;;17.13;;
16029;SDS011;34770;49.272;11.070;2024-01-11T08:07:56;30.03;;;17.93;;
16029;SDS011;34770;49.272;11.070;2024-01-11T08:10:21;29.33;;;16.30;;
16029;SDS011;34770;49.272;11.070;2024-01-11T08:12:47;31.63;;;20.17;;
16029;SDS011;34770;49.272;11.070;2024-01-11T08:15:12;37.20;;;19.13;;
16029;SDS011;34770;49.272;11.070;2024-01-11T08:17:38;27.07;;;17.43;;
16029;SDS011;34770;49.272;11.070;2024-01-11T08:20:04;29.50;;;16.70;;
16029;SDS011;34770;49.272;11.070;2024-01-11T08:22:33;29.70;;;18.10;;
16029;SDS011;34770;49.272;11.070;2024-01-11T08:25:00;29.47;;;18.70;;
16029;SDS011;34770;49.272;11.070;2024-01-11T08:27:27;33.10;;;19.50;;
16029;SDS011;34770;49.272;11.070;2024-01-11T08:29:52;34.10;;;21.07;;
16029;SDS011;34770;49.272;11.070;2024-01-11T08:32:17;31.20;;;17.80;;
16029;SDS011;34770;49.272;11.070;2024-01-11T08:34:43;32.00;;;18.47;;
16029;SDS011;34770;49.272;11.070;2024-01-11T08:37:08;62.67;;;32.33;;
16029;SDS011;34770;49.272;11.070;2024-01-11T08:39:34;88.50;;;43.07;;
16029;SDS011;34770;49.272;11.070;2024-01-11T08:41:59;42.07;;;21.83;;
16029;SDS011;34770;49.272;11.070;2024-01-11T08:44:25;33.77;;;21.43;;
16029;SDS011;34770;49.272;11.070;2024-01-11T08:46:50;56.53;;;27.93;;
16029;SDS011;34770;49.272;11.070;2024-01-11T08:49:15;222.20;;;84.63;;
16029;SDS011;34770;49.272;11.070;2024-01-11T08:51:41;183.03;;;77.17;;
16029;SDS011;34770;49.272;11.070;2024-01-11T08:54:06;57.90;;;31.20;;
16029;SDS011;34770;49.272;11.070;2024-01-11T08:56:34;40.00;;;24.10;;
16029;SDS011;34770;49.272;11.070;2024-01-11T08:59:00;32.87;;;20.37;;
16029;SDS011;34770;49.272;11.070;2024-01-11T09:01:25;64.83;;;40.87;;
16029;SDS011;34770;49.272;11.070;2024-01-11T09:03:51;52.23;;;33.20;;
16029;SDS011;34770;49.272;11.070;2024-01-11T09:06:16;45.83;;;25.33;;
16029;SDS011;34770;49.272;11.070;2024-01-11T09:08:41;54.13;;;27.87;;
16029;SDS011;34770;49.272;11.070;2024-01-11T09:11:07;42.63;;;24.57;;
16029;SDS011;34770;49.272;11.070;2024-01-11T09:13:32;42.13;;;24.30;;
16029;SDS011;34770;49.272;11.070;2024-01-11T09:15:58;42.83;;;21.97;;
16029;SDS011;34770;49.272;11.070;2024-01-11T09:18:23;35.07;;;21.60;;
16029;SDS011;34770;49.272;11.070;2024-01-11T09:20:49;37.73;;;22.47;;
16029;SDS011;34770;49.272;11.070;2024-01-11T09:23:14;42.30;;;23.13;;
16029;SDS011;34770;49.272;11.070;2024-01-11T09:25:41;42.07;;;25.10;;
16029;SDS011;34770;49.272;11.070;2024-01-11T09:28:06;38.33;;;21.37;;
16029;SDS011;34770;49.272;11.070;2024-01-11T09:30:31;35.67;;;22.70;;
16029;SDS011;34770;49.272;11.070;2024-01-11T09:32:57;36.83;;;22.00;;
16029;SDS011;34770;49.272;11.070;2024-01-11T09:35:22;37.37;;;22.93;;
16029;SDS011;34770;49.272;11.070;2024-01-11T09:37:48;39.13;;;23.10;;
16029;SDS011;34770;49.272;11.070;2024-01-11T09:40:14;34.50;;;22.33;;
16029;SDS011;34770;49.272;11.070;2024-01-11T09:42:41;34.43;;;21.83;;
16029;SDS011;34770;49.272;11.070;2024-01-11T09:45:07;35.67;;;22.33;;
16029;SDS011;34770;49.272;11.070;2024-01-11T09:47:35;37.23;;;21.60;;
16029;SDS011;34770;49.272;11.070;2024-01-11T09:50:04;32.37;;;20.47;;
16029;SDS011;34770;49.272;11.070;2024-01-11T09:52:32;31.50;;;19.80;;
16029;SDS011;34770;49.272;11.070;2024-01-11T09:54:58;37.30;;;22.17;;
16029;SDS011;34770;49.272;11.070;2024-01-11T09:57:24;38.13;;;24.93;;
16029;SDS011;34770;49.272;11.070;2024-01-11T09:59:54;34.70;;;22.13;;
16029;SDS011;34770;49.272;11.070;2024-01-11T10:02:23;31.53;;;20.90;;
16029;SDS011;34770;49.272;11.070;2024-01-11T10:04:51;33.20;;;21.53;;
16029;SDS011;34770;49.272;11.070;2024-01-11T10:07:18;31.93;;;21.47;;
16029;SDS011;34770;49.272;11.070;2024-01-11T10:09:46;35.43;;;22.67;;
16029;SDS011;34770;49.272;11.070;2024-01-11T10:12:12;33.83;;;21.67;;
16029;SDS011;34770;49.272;11.070;2024-01-11T10:14:38;35.03;;;22.73;;
16029;SDS011;34770;49.272;11.070;2024-01-11T10:17:03;34.37;;;22.70;;
16029;SDS011;34770;49.272;11.070;2024-01-11T10:19:30;36.20;;;22.70;;
16029;SDS011;34770;49.272;11.070;2024-01-11T10:21:56;30.60;;;20.40;;
16029;SDS011;34770;49.272;11.070;2024-01-11T10:24:22;31.17;;;18.90;;
16029;SDS011;34770;49.272;11.070;2024-01-11T10:26:51;32.57;;;19.70;;
16029;SDS011;34770;49.272;11.070;2024-01-11T10:29:16;35.43;;;23.70;;
16029;SDS011;34770;49.272;11.070;2024-01-11T10:31:43;30.70;;;20.83;;
16029;SDS011;34770;49.272;11.070;2024-01-11T10:34:08;31.90;;;20.90;;
16029;SDS011;34770;49.272;11.070;2024-01-11T10:36:34;38.03;;;23.70;;
16029;SDS011;34770;49.272;11.070;2024-01-11T10:39:00;35.63;;;22.80;;
16029;SDS011;34770;49.272;11.070;2024-01-11T10:41:29;37.30;;;24.97;;
16029;SDS011;34770;49.272;11.070;2024-01-11T10:44:03;39.60;;;23.33;;
16029;SDS011;34770;49.272;11.070;2024-01-11T10:46:29;33.27;;;22.07;;
16029;SDS011;34770;49.272;11.070;2024-01-11T10:48:57;45.83;;;29.73;;
16029;SDS011;34770;49.272;11.070;2024-01-11T10:51:24;35.03;;;23.07;;
16029;SDS011;34770;49.272;11.070;2024-01-11T10:53:53;39.93;;;24.03;;
16029;SDS011;34770;49.272;11.070;2024-01-11T10:56:19;40.67;;;25.47;;
16029;SDS011;34770;49.272;11.070;2024-01-11T10:58:45;47.60;;;29.90;;
16029;SDS011;34770;49.272;11.070;2024-01-11T11:01:12;37.30;;;24.57;;
16029;SDS011;34770;49.272;11.070;2024-01-11T11:03:38;37.87;;;25.07;;
16029;SDS011;34770;49.272;11.070;2024-01-11T11:06:04;37.93;;;23.77;;
16029;SDS011;34770;49.272;11.070;2024-01-11T11:08:34;39.40;;;26.13;;
16029;SDS011;34770;49.272;11.070;2024-01-11T11:11:02;36.33;;;24.90;;
16029;SDS011;34770;49.272;11.070;2024-01-11T11:13:30;37.67;;;23.77;;
16029;SDS011;34770;49.272;11.070;2024-01-11T11:15:57;36.57;;;22.23;;
16029;SDS011;34770;49.272;11.070;2024-01-11T11:18:23;36.27;;;23.33;;
16029;SDS011;34770;49.272;11.070;2024-01-11T11:20:50;39.13;;;22.60;;
16029;SDS011;34770;49.272;11.070;2024-01-11T11:23:16;36.23;;;24.83;;
16029;SDS011;34770;49.272;11.070;2024-01-11T11:25:46;35.53;;;22.60;;
16029;SDS011;34770;49.272;11.070;2024-01-11T11:28:13;30.00;;;20.83;;
16029;SDS011;34770;49.272;11.070;2024-01-11T11:30:40;38.20;;;23.10;;
16029;SDS011;34770;49.272;11.070;2024-01-11T11:33:07;40.90;;;24.37;;
16029;SDS011;34770;49.272;11.070;2024-01-11T11:35:40;32.10;;;20.97;;
16029;SDS011;34770;49.272;11.070;2024-01-11T11:38:06;35.23;;;21.93;;
16029;SDS011;34770;49.272;11.070;2024-01-11T11:40:38;38.43;;;25.83;;
16029;SDS011;34770;49.272;11.070;2024-01-11T11:43:08;34.90;;;21.67;;
16029;SDS011;34770;49.272;11.070;2024-01-11T11:45:34;37.37;;;22.70;;
16029;SDS011;34770;49.272;11.070;2024-01-11T11:48:00;32.90;;;22.27;;
16029;SDS011;34770;49.272;11.070;2024-01-11T11:50:25;33.20;;;22.00;;
16029;SDS011;34770;49.272;11.070;2024-01-11T11:52:54;31.97;;;20.67;;
16029;SDS011;34770;49.272;11.070;2024-01-11T11:55:22;32.90;;;21.60;;
16029;SDS011;34770;49.272;11.070;2024-01-11T11:57:53;29.87;;;20.90;;
16029;SDS011;34770;49.272;11.070;2024-01-11T12:00:21;32.97;;;21.00;;
16029;SDS011;34770;49.272;11.070;2024-01-11T12:02:48;31.90;;;21.10;;
16029;SDS011;34770;49.272;11.070;2024-01-11T12:05:16;29.87;;;21.37;;
16029;SDS011;34770;49.272;11.070;2024-01-11T12:07:42;31.63;;;20.07;;
16029;SDS011;34770;49.272;11.070;2024-01-11T12:10:07;41.83;;;29.90;;
16029;SDS011;34770;49.272;11.070;2024-01-11T12:12:36;36.50;;;23.97;;
16029;SDS011;34770;49.272;11.070;2024-01-11T12:15:03;33.73;;;21.40;;
16029;SDS011;34770;49.272;11.070;2024-01-11T12:17:29;33.40;;;23.23;;
16029;SDS011;34770;49.272;11.070;2024-01-11T12:19:55;33.80;;;23.17;;
16029;SDS011;34770;49.272;11.070;2024-01-11T12:22:20;31.40;;;21.20;;
16029;SDS011;34770;49.272;11.070;2024-01-11T12:24:46;28.83;;;21.37;;
16029;SDS011;34770;49.272;11.070;2024-01-11T12:27:12;32.23;;;20.67;;
16029;SDS011;34770;49.272;11.070;2024-01-11T12:29:40;30.27;;;21.33;;
16029;SDS011;34770;49.272;11.070;2024-01-11T12:32:07;32.50;;;22.53;;
16029;SDS011;34770;49.272;11.070;2024-01-11T12:34:36;32.70;;;22.43;;
16029;SDS011;34770;49.272;11.070;2024-01-11T12:37:01;33.60;;;21.10;;
16029;SDS011;34770;49.272;11.070;2024-01-11T12:39:30;31.10;;;21.20;;
16029;SDS011;34770;49.272;11.070;2024-01-11T12:41:55;31.07;;;21.33;;
16029;SDS011;34770;49.272;11.070;2024-01-11T12:44:22;34.63;;;21.03;;
16029;SDS011;34770;49.272;11.070;2024-01-11T12:46:48;36.40;;;21.83;;
16029;SDS011;34770;49.272;11.070;2024-01-11T12:49:14;30.87;;;22.17;;
16029;SDS011;34770;49.272;11.070;2024-01-11T12:51:40;32.43;;;20.83;;
16029;SDS011;34770;49.272;11.070;2024-01-11T12:54:08;27.63;;;20.33;;
16029;SDS011;34770;49.272;11.070;2024-01-11T12:56:36;28.57;;;19.80;;
16029;SDS011;34770;49.272;11.070;2024-01-11T12:59:06;29.93;;;19.83;;
16029;SDS011;34770;49.272;11.070;2024-01-11T13:01:32;26.47;;;19.67;;
16029;SDS011;34770;49.272;11.070;2024-01-11T13:03:58;31.57;;;21.03;;
16029;SDS011;34770;49.272;11.070;2024-01-11T13:06:23;37.53;;;22.40;;
16029;SDS011;34770;49.272;11.070;2024-01-11T13:08:50;33.47;;;21.20;;
16029;SDS011;34770;49.272;11.070;2024-01-11T13:11:16;35.60;;;23.10;;
16029;SDS011;34770;49.272;11.070;2024-01-11T13:13:42;33.03;;;22.47;;
16029;SDS011;34770;49.272;11.070;2024-01-11T13:16:07;31.67;;;22.17;;
16029;SDS011;34770;49.272;11.070;2024-01-11T13:18:36;37.97;;;23.37;;
16029;SDS011;34770;49.272;11.070;2024-01-11T13:21:01;29.27;;;20.90;;
16029;SDS011;34770;49.272;11.070;2024-01-11T13:23:27;31.77;;;23.10;;
16029;SDS011;34770;49.272;11.070;2024-01-11T13:25:53;30.80;;;22.00;;
16029;SDS011;34770;49.272;11.070;2024-01-11T13:28:19;34.03;;;22.10;;
16029;SDS011;34770;49.272;11.070;2024-01-11T13:30:44;31.57;;;21.43;;
16029;SDS011;34770;49.272;11.070;2024-01-11T13:33:11;31.83;;;20.90;;
16029;SDS011;34770;49.272;11.070;2024-01-11T13:35:37;32.53;;;22.43;;
16029;SDS011;34770;49.272;11.070;2024-01-11T13:38:03;35.10;;;22.27;;
16029;SDS011;34770;49.272;11.070;2024-01-11T13:40:29;32.43;;;21.20;;
16029;SDS011;34770;49.272;11.070;2024-01-11T13:42:56;31.90;;;21.43;;
16029;SDS011;34770;49.272;11.070;2024-01-11T13:45:22;28.80;;;20.90;;
16029;SDS011;34770;49.272;11.070;2024-01-11T13:47:51;32.77;;;22.43;;
16029;SDS011;34770;49.272;11.070;2024-01-11T13:50:18;32.67;;;19.67;;
16029;SDS011;34770;49.272;11.070;2024-01-11T13:52:44;33.50;;;22.40;;
16029;SDS011;34770;49.272;11.070;2024-01-11T13:55:10;28.67;;;20.83;;
16029;SDS011;34770;49.272;11.070;2024-01-11T13:57:36;30.20;;;21.70;;
16029;SDS011;34770;49.272;11.070;2024-01-11T14:00:03;31.80;;;22.35;;
16029;SDS011;34770;49.272;11.070;2024-01-11T14:02:29;27.63;;;20.17;;